createdAt,value
2022-09-23T00:00:35.836Z,8.90
2022-09-23T00:03:46.254Z,9.00
2022-09-23T00:06:54.647Z,8.90
2022-09-23T00:10:03.045Z,8.90
2022-09-23T00:13:11.889Z,9.00
2022-09-23T00:16:25.020Z,9.00
2022-09-23T00:19:33.561Z,9.10
2022-09-23T00:22:41.993Z,9.10
2022-09-23T00:25:57.733Z,9.00
2022-09-23T00:29:06.206Z,9.00
2022-09-23T00:32:16.250Z,8.90
2022-09-23T00:35:24.921Z,8.90
2022-09-23T00:38:34.049Z,8.90
2022-09-23T00:41:42.652Z,8.90
2022-09-23T00:44:52.918Z,8.90
2022-09-23T00:48:05.394Z,8.80
2022-09-23T00:51:17.896Z,8.70
2022-09-23T00:54:29.008Z,8.80
2022-09-23T00:57:39.577Z,8.80
2022-09-23T01:00:48.025Z,8.80
2022-09-23T01:03:58.934Z,8.80
2022-09-23T01:07:07.422Z,8.80
2022-09-23T01:10:16.909Z,8.80
2022-09-23T01:13:33.265Z,8.80
2022-09-23T01:16:46.719Z,8.70
2022-09-23T01:20:14.864Z,8.60
2022-09-23T01:24:03.460Z,8.50
2022-09-23T01:27:20.424Z,8.60
2022-09-23T01:30:49.730Z,8.60
2022-09-23T01:34:02.232Z,8.60
2022-09-23T01:37:15.650Z,8.50
2022-09-23T01:40:28.774Z,8.50
2022-09-23T01:43:44.297Z,8.50
2022-09-23T01:46:58.289Z,8.50
2022-09-23T01:50:25.357Z,8.40
2022-09-23T01:53:40.380Z,8.40
2022-09-23T01:56:52.619Z,8.50
2022-09-23T02:00:09.090Z,8.50
2022-09-23T02:03:26.898Z,8.50
2022-09-23T02:06:39.883Z,8.40
2022-09-23T02:09:55.677Z,8.30
2022-09-23T02:13:09.707Z,8.30
2022-09-23T02:16:28.323Z,8.20
2022-09-23T02:19:44.794Z,8.20
2022-09-23T02:22:58.645Z,8.30
2022-09-23T02:26:10.316Z,8.40
2022-09-23T02:29:22.565Z,8.50
2022-09-23T02:32:38.058Z,8.50
2022-09-23T02:35:53.887Z,8.60
2022-09-23T02:39:08.730Z,8.60
2022-09-23T02:42:22.166Z,8.70
2022-09-23T02:45:31.209Z,8.70
2022-09-23T02:48:43.359Z,8.70
2022-09-23T02:51:54.600Z,8.70
2022-09-23T02:55:03.146Z,8.80
2022-09-23T02:58:14.625Z,8.90
2022-09-23T03:01:32.585Z,8.90
2022-09-23T03:04:48.021Z,9.00
2022-09-23T03:08:13.442Z,9.00
2022-09-23T03:11:22.926Z,9.00
2022-09-23T03:14:40.544Z,9.10
2022-09-23T03:17:56.871Z,9.10
2022-09-23T03:21:08.764Z,9.10
2022-09-23T03:24:20.588Z,9.10
2022-09-23T03:27:31.813Z,9.20
2022-09-23T03:30:43.553Z,9.10
2022-09-23T03:33:56.696Z,9.20
2022-09-23T03:37:11.442Z,9.20
2022-09-23T03:40:24.930Z,9.20
2022-09-23T03:43:38.559Z,9.30
2022-09-23T03:46:49.890Z,9.30
2022-09-23T03:49:58.405Z,9.20
2022-09-23T03:53:06.972Z,9.20
2022-09-23T03:56:17.049Z,9.20
2022-09-23T03:59:25.815Z,9.10
2022-09-23T04:02:34.538Z,9.10
2022-09-23T04:05:43.413Z,9.10
2022-09-23T04:08:51.874Z,9.10
2022-09-23T04:12:01.978Z,9.10
2022-09-23T04:15:11.336Z,9.10
2022-09-23T04:18:19.757Z,9.00
2022-09-23T04:21:28.576Z,9.00
2022-09-23T04:24:36.962Z,9.00
2022-09-23T04:27:46.843Z,9.10
2022-09-23T04:30:57.792Z,9.00
2022-09-23T04:34:06.216Z,9.00
2022-09-23T04:37:14.708Z,9.00
2022-09-23T04:40:23.106Z,8.90
2022-09-23T04:43:32.943Z,8.90
2022-09-23T04:46:41.774Z,8.90
2022-09-23T04:49:50.271Z,8.90
2022-09-23T04:52:58.895Z,8.90
2022-09-23T04:56:09.576Z,8.90
2022-09-23T04:59:19.514Z,8.90
2022-09-23T05:02:28.457Z,8.90
2022-09-23T05:05:39.838Z,9.00
2022-09-23T05:08:50.199Z,9.00
2022-09-23T05:11:58.625Z,9.00
2022-09-23T05:15:09.310Z,8.90
2022-09-23T05:18:20.745Z,9.00
2022-09-23T05:21:30.281Z,9.00
2022-09-23T05:24:38.695Z,9.00
2022-09-23T05:27:47.142Z,9.00
2022-09-23T05:31:04.418Z,9.00
2022-09-23T05:34:12.860Z,9.10
2022-09-23T05:37:21.290Z,9.10
2022-09-23T05:40:29.852Z,9.20
2022-09-23T05:43:38.746Z,9.20
2022-09-23T05:46:48.966Z,9.30
2022-09-23T05:50:00.202Z,9.30
2022-09-23T05:53:09.025Z,9.30
2022-09-23T05:56:19.326Z,9.40
2022-09-23T05:59:27.714Z,9.40
2022-09-23T06:02:37.539Z,9.50
2022-09-23T06:05:46.797Z,9.60
2022-09-23T06:08:55.191Z,9.70
2022-09-23T06:12:03.869Z,10.10
2022-09-23T06:15:13.198Z,10.50
2022-09-23T06:18:22.959Z,10.80
2022-09-23T06:21:31.390Z,11.00
2022-09-23T06:24:39.785Z,11.60
2022-09-23T06:27:55.453Z,12.10
2022-09-23T06:31:08.529Z,12.60
2022-09-23T06:34:21.002Z,12.60
2022-09-23T06:37:30.683Z,12.60
2022-09-23T06:40:39.217Z,13.00
2022-09-23T06:43:47.746Z,12.90
2022-09-23T06:46:56.211Z,12.70
2022-09-23T06:50:06.558Z,12.40
2022-09-23T06:53:14.981Z,12.40
2022-09-23T06:56:23.800Z,12.30
2022-09-23T06:59:32.305Z,12.20
2022-09-23T07:02:42.935Z,12.20
2022-09-23T07:05:56.063Z,12.20
2022-09-23T07:09:04.808Z,12.30
2022-09-23T07:12:14.064Z,12.40
2022-09-23T07:15:22.502Z,12.50
2022-09-23T07:18:36.440Z,12.70
2022-09-23T07:21:46.686Z,12.70
2022-09-23T07:24:56.088Z,12.80
2022-09-23T07:28:04.896Z,12.90
2022-09-23T07:31:17.724Z,13.00
2022-09-23T07:34:27.807Z,13.10
2022-09-23T07:37:37.873Z,13.30
2022-09-23T07:40:46.748Z,13.20
2022-09-23T07:43:58.970Z,13.20
2022-09-23T07:47:07.420Z,13.20
2022-09-23T07:50:15.917Z,13.40
2022-09-23T07:53:25.928Z,13.60
2022-09-23T07:56:35.168Z,13.80
2022-09-23T07:59:44.146Z,14.00
2022-09-23T08:02:53.292Z,14.10
2022-09-23T08:06:06.373Z,14.20
2022-09-23T08:09:17.184Z,14.10
2022-09-23T08:12:25.690Z,14.10
2022-09-23T08:15:34.412Z,14.00
2022-09-23T08:18:45.701Z,14.00
2022-09-23T08:21:54.461Z,14.40
2022-09-23T08:25:06.220Z,15.00
2022-09-23T08:28:18.662Z,15.30
2022-09-23T08:31:27.339Z,15.40
2022-09-23T08:34:35.798Z,15.60
2022-09-23T08:37:44.147Z,16.30
2022-09-23T08:40:55.998Z,16.20
2022-09-23T08:44:11.941Z,15.80
2022-09-23T08:47:24.716Z,15.70
2022-09-23T08:50:41.286Z,15.50
2022-09-23T08:53:49.738Z,15.40
2022-09-23T08:57:03.582Z,15.30
2022-09-23T09:00:20.418Z,15.10
2022-09-23T09:03:35.974Z,15.10
2022-09-23T09:06:53.633Z,15.00
2022-09-23T09:10:08.330Z,15.10
2022-09-23T09:13:29.458Z,15.20
2022-09-23T09:16:59.575Z,15.50
2022-09-23T09:20:23.270Z,15.90
2022-09-23T09:23:37.474Z,16.10
2022-09-23T09:26:46.196Z,16.20
2022-09-23T09:29:57.316Z,16.20
2022-09-23T09:33:11.349Z,16.10
2022-09-23T09:36:30.900Z,16.40
2022-09-23T09:39:39.497Z,16.70
2022-09-23T09:42:50.380Z,16.60
2022-09-23T09:46:08.419Z,16.70
2022-09-23T09:49:26.023Z,16.60
2022-09-23T09:52:34.494Z,16.80
2022-09-23T09:55:43.264Z,16.80
2022-09-23T09:58:54.958Z,16.80
2022-09-23T10:02:26.157Z,16.90
2022-09-23T10:05:36.260Z,17.50
2022-09-23T10:08:51.204Z,17.80
2022-09-23T10:12:15.527Z,17.70
2022-09-23T10:15:33.990Z,17.90
2022-09-23T10:18:53.483Z,17.90
2022-09-23T10:22:16.794Z,17.50
2022-09-23T10:25:27.605Z,17.60
2022-09-23T10:28:48.851Z,17.70
2022-09-23T10:32:20.102Z,17.90
2022-09-23T10:35:34.493Z,18.10
2022-09-23T10:38:42.887Z,17.80
2022-09-23T10:42:21.917Z,18.20
2022-09-23T10:45:52.589Z,18.60
2022-09-23T10:49:17.645Z,18.40
2022-09-23T10:52:49.910Z,18.20
2022-09-23T10:56:16.519Z,17.90
2022-09-23T10:59:58.661Z,18.00
2022-09-23T11:03:38.649Z,18.20
2022-09-23T11:07:07.380Z,17.80
2022-09-23T11:10:52.996Z,17.80
2022-09-23T11:14:17.829Z,17.90
2022-09-23T11:17:42.262Z,17.70
2022-09-23T11:20:56.737Z,17.50
2022-09-23T11:24:24.191Z,17.60
2022-09-23T11:27:47.004Z,17.70
2022-09-23T11:31:05.783Z,17.60
2022-09-23T11:34:36.030Z,17.50
2022-09-23T11:37:47.769Z,17.40
2022-09-23T11:41:01.748Z,17.40
2022-09-23T11:44:18.488Z,17.20
2022-09-23T11:47:33.517Z,17.30
2022-09-23T11:50:51.245Z,17.20
2022-09-23T11:54:04.108Z,17.10
2022-09-23T11:57:20.587Z,17.20
2022-09-23T12:00:34.999Z,17.20
2022-09-23T12:03:50.331Z,17.20
2022-09-23T12:07:02.305Z,17.20
2022-09-23T12:10:12.990Z,17.10
2022-09-23T12:13:27.749Z,17.00
2022-09-23T12:17:04.117Z,16.80
2022-09-23T12:20:30.187Z,16.80
2022-09-23T12:23:56.602Z,16.80
2022-09-23T12:27:11.027Z,16.60
2022-09-23T12:30:22.359Z,16.60
2022-09-23T12:33:34.207Z,16.40
2022-09-23T12:36:43.941Z,16.50
2022-09-23T12:39:52.450Z,16.50
2022-09-23T12:43:02.427Z,16.50
2022-09-23T12:46:29.414Z,16.30
2022-09-23T12:49:39.387Z,16.30
2022-09-23T12:52:47.804Z,16.30
2022-09-23T12:55:56.449Z,16.40
2022-09-23T12:59:26.161Z,16.30
2022-09-23T13:02:37.667Z,16.40
2022-09-23T13:06:09.885Z,16.20
2022-09-23T13:09:24.865Z,16.00
2022-09-23T13:12:38.930Z,16.10
2022-09-23T13:15:47.658Z,15.90
2022-09-23T13:18:58.298Z,15.90
2022-09-23T13:22:09.351Z,15.90
2022-09-23T13:25:21.102Z,15.90
2022-09-23T13:28:36.946Z,15.90
2022-09-23T13:31:46.745Z,16.10
2022-09-23T13:34:59.576Z,16.00
2022-09-23T13:38:13.457Z,16.00
2022-09-23T13:41:23.743Z,16.00
2022-09-23T13:44:32.541Z,16.10
2022-09-23T13:47:44.533Z,16.20
2022-09-23T13:50:54.778Z,16.20
2022-09-23T13:54:06.458Z,16.10
2022-09-23T13:57:26.502Z,16.10
2022-09-23T14:00:40.400Z,16.10
2022-09-23T14:03:48.821Z,15.90
2022-09-23T14:06:57.603Z,15.80
2022-09-23T14:10:08.681Z,15.70
2022-09-23T14:13:24.837Z,15.70
2022-09-23T14:16:37.449Z,15.70
2022-09-23T14:19:46.626Z,15.70
2022-09-23T14:23:10.511Z,15.60
2022-09-23T14:26:21.079Z,15.60
2022-09-23T14:29:32.915Z,15.60
2022-09-23T14:32:41.786Z,15.60
2022-09-23T14:35:53.148Z,15.60
2022-09-23T14:39:05.664Z,15.60
2022-09-23T14:42:17.425Z,15.60
2022-09-23T14:45:27.685Z,15.70
2022-09-23T14:48:37.584Z,15.70
2022-09-23T14:51:51.921Z,15.70
2022-09-23T14:55:01.910Z,15.70
2022-09-23T14:58:18.051Z,15.70
2022-09-23T15:01:36.492Z,15.70
2022-09-23T15:04:45.031Z,15.70
2022-09-23T15:07:56.732Z,15.70
2022-09-23T15:11:08.299Z,15.60
2022-09-23T15:14:37.201Z,15.50
2022-09-23T15:17:47.133Z,15.50
2022-09-23T15:20:59.148Z,15.40
2022-09-23T15:24:23.135Z,15.40
2022-09-23T15:27:33.465Z,15.40
2022-09-23T15:30:43.272Z,15.50
2022-09-23T15:33:52.700Z,15.60
2022-09-23T15:37:01.142Z,15.50
2022-09-23T15:40:19.366Z,15.50
2022-09-23T15:43:28.002Z,15.40
2022-09-23T15:46:38.343Z,15.40
2022-09-23T15:49:48.233Z,15.40
2022-09-23T15:52:56.807Z,15.40
2022-09-23T15:56:06.266Z,15.30
2022-09-23T15:59:14.629Z,15.20
2022-09-23T16:02:25.350Z,15.20
2022-09-23T16:05:37.879Z,15.20
2022-09-23T16:08:46.965Z,15.20
2022-09-23T16:11:55.732Z,15.30
2022-09-23T16:15:04.261Z,15.30
2022-09-23T16:18:14.608Z,15.30
2022-09-23T16:21:26.131Z,15.30
2022-09-23T16:24:34.639Z,15.30
2022-09-23T16:27:43.091Z,15.30
2022-09-23T16:30:51.556Z,15.20
2022-09-23T16:34:02.559Z,15.20
2022-09-23T16:37:15.060Z,15.20
2022-09-23T16:40:25.386Z,15.20
2022-09-23T16:43:39.551Z,15.20
2022-09-23T16:46:48.099Z,15.20
2022-09-23T16:49:57.893Z,15.20
2022-09-23T16:53:06.315Z,15.20
2022-09-23T16:56:14.695Z,15.10
2022-09-23T16:59:43.341Z,15.10
2022-09-23T17:03:09.256Z,15.10
2022-09-23T17:06:19.396Z,15.10
2022-09-23T17:09:29.225Z,15.10
2022-09-23T17:12:37.646Z,15.00
2022-09-23T17:15:46.070Z,15.00
2022-09-23T17:18:56.332Z,15.00
2022-09-23T17:22:06.146Z,15.00
2022-09-23T17:25:14.706Z,15.00
2022-09-23T17:28:23.260Z,14.90
2022-09-23T17:31:31.767Z,15.00
2022-09-23T17:34:40.238Z,15.00
2022-09-23T17:37:50.063Z,15.00
2022-09-23T17:41:01.401Z,15.00
2022-09-23T17:44:11.545Z,14.90
2022-09-23T17:47:19.948Z,14.90
2022-09-23T17:50:28.331Z,14.90
2022-09-23T17:53:40.124Z,14.90
2022-09-23T17:56:48.523Z,14.90
2022-09-23T17:59:57.082Z,14.90
2022-09-23T18:03:05.656Z,14.90
2022-09-23T18:06:32.304Z,14.90
2022-09-23T18:09:43.257Z,14.80
2022-09-23T18:12:54.336Z,14.80
2022-09-23T18:16:04.095Z,14.80
2022-09-23T18:19:14.110Z,14.70
2022-09-23T18:22:22.536Z,14.70
2022-09-23T18:25:39.695Z,14.70
2022-09-23T18:28:48.922Z,14.70
2022-09-23T18:31:59.245Z,14.60
2022-09-23T18:35:08.953Z,14.70
2022-09-23T18:38:17.622Z,14.70
2022-09-23T18:41:27.922Z,14.60
2022-09-23T18:44:36.826Z,14.50
2022-09-23T18:48:02.598Z,14.60
2022-09-23T18:51:11.550Z,14.60
2022-09-23T18:54:20.600Z,14.60
2022-09-23T18:57:30.461Z,14.50
2022-09-23T19:00:39.564Z,14.50
2022-09-23T19:03:48.075Z,14.50
2022-09-23T19:06:57.989Z,14.50
2022-09-23T19:10:08.259Z,14.50
2022-09-23T19:13:18.021Z,14.40
2022-09-23T19:16:27.928Z,14.30
2022-09-23T19:19:36.338Z,14.30
2022-09-23T19:22:48.377Z,14.30
2022-09-23T19:25:57.281Z,14.30
2022-09-23T19:29:08.506Z,14.30
2022-09-23T19:32:17.047Z,14.30
2022-09-23T19:35:25.844Z,14.30
2022-09-23T19:38:34.346Z,14.20
2022-09-23T19:41:42.807Z,14.20
2022-09-23T19:44:53.101Z,14.30
2022-09-23T19:48:02.112Z,14.30
2022-09-23T19:51:10.563Z,14.30
2022-09-23T19:54:20.698Z,14.30
2022-09-23T19:57:33.464Z,14.30
2022-09-23T20:00:43.281Z,14.30
2022-09-23T20:03:51.952Z,14.30
2022-09-23T20:07:00.403Z,14.40
2022-09-23T20:10:10.014Z,14.40
2022-09-23T20:13:18.486Z,14.50
2022-09-23T20:16:29.943Z,14.40
2022-09-23T20:19:38.443Z,14.30
2022-09-23T20:22:48.125Z,14.20
2022-09-23T20:26:14.606Z,14.10
2022-09-23T20:29:23.484Z,14.10
2022-09-23T20:32:33.385Z,14.10
2022-09-23T20:35:43.255Z,14.10
2022-09-23T20:38:54.928Z,14.10
2022-09-23T20:42:04.039Z,14.10
2022-09-23T20:45:12.585Z,14.00
2022-09-23T20:48:22.989Z,14.00
2022-09-23T20:51:33.295Z,14.00
2022-09-23T20:54:42.281Z,13.90
2022-09-23T20:57:50.697Z,13.90
2022-09-23T21:01:03.020Z,13.90
2022-09-23T21:04:12.839Z,13.90
2022-09-23T21:07:21.263Z,13.90
2022-09-23T21:10:29.838Z,13.80
2022-09-23T21:13:38.349Z,13.80
2022-09-23T21:16:47.794Z,13.80
2022-09-23T21:19:57.735Z,13.80
2022-09-23T21:23:06.415Z,13.80
2022-09-23T21:26:19.312Z,13.80
2022-09-23T21:29:27.760Z,13.90
2022-09-23T21:32:36.182Z,13.90
2022-09-23T21:35:45.996Z,13.90
2022-09-23T21:38:55.519Z,13.90
2022-09-23T21:42:03.924Z,13.90
2022-09-23T21:45:12.707Z,13.90
2022-09-23T21:48:21.062Z,13.90
2022-09-23T21:51:34.126Z,13.90
2022-09-23T21:54:42.547Z,13.80
2022-09-23T21:57:51.610Z,13.90
2022-09-23T22:01:01.223Z,13.80
2022-09-23T22:04:15.823Z,13.80
2022-09-23T22:07:25.876Z,13.80
2022-09-23T22:10:34.327Z,13.80
2022-09-23T22:13:42.752Z,13.80
2022-09-23T22:16:51.314Z,13.80
2022-09-23T22:19:59.770Z,13.70
2022-09-23T22:23:09.561Z,13.70
2022-09-23T22:26:17.973Z,13.70
2022-09-23T22:29:43.787Z,13.70
2022-09-23T22:32:55.229Z,13.70
2022-09-23T22:36:04.462Z,13.70
2022-09-23T22:39:14.371Z,13.70
2022-09-23T22:42:22.921Z,13.70
2022-09-23T22:45:31.345Z,13.70
2022-09-23T22:48:39.942Z,13.70
2022-09-23T22:51:53.707Z,13.70
2022-09-23T22:55:07.138Z,13.70
2022-09-23T22:58:31.830Z,13.60
2022-09-23T23:01:42.072Z,13.70
2022-09-23T23:04:51.301Z,13.60
2022-09-23T23:08:01.319Z,13.60
2022-09-23T23:11:11.446Z,13.60
2022-09-23T23:14:20.277Z,13.60
2022-09-23T23:17:29.989Z,13.50
2022-09-23T23:20:38.383Z,13.50
2022-09-23T23:23:48.522Z,13.50
2022-09-23T23:26:58.379Z,13.50
2022-09-23T23:30:09.523Z,13.60
2022-09-23T23:33:17.918Z,13.60
2022-09-23T23:36:26.359Z,13.60
2022-09-23T23:39:35.574Z,13.60
2022-09-23T23:42:45.352Z,13.50
2022-09-23T23:45:53.723Z,13.50
2022-09-23T23:49:02.371Z,13.50
2022-09-23T23:52:11.025Z,13.50
2022-09-23T23:55:19.440Z,13.40
2022-09-23T23:58:29.574Z,13.40
